Airfield :
LOGIN :

Register | Disclaimer

   EN    FR    IT 

 










Legend :    VFR   Marginal VFR   IFR   Intensive IFR   Very Intensive IFR
Visi :
Ceiling :
>= 8 km
>= 3000ft
5 to 8 km
1000 to 3000 ft
1500m to 5 km
500 to 1000 ft
800 to 1500m
200 to 500 ft
< 800m
< 200 ft
Symbols :   Thunderstorms  Fog  Heavy snow  Heavy precipitations  Wind > 20 kt
SIGMETs :     Misc.  Thunderstorms  Icing  Turbulence  Mountain Waves  Volcanic Ashes






- Airport Elevation : 935 ft


EBFS - Florennes

CURRENT METAR :
  • 211855Z AUTO 13009KT 7000 BKN220/// 03/03 Q1004 WHT

EXPIRED METARs :
  • 211825Z AUTO 12006KT 6000 BKN220/// 03/02 Q1005 WHT
  • 211755Z AUTO 11007KT 7000 BKN210/// 03/03 Q1005 WHT
  • 211733Z AUTO 11008KT 7000 BKN210/// 04/02 Q1005 WHT
  • 211724Z AUTO 11007KT 7000 BKN210/// 04/03 Q1005 WHT
  • 211655Z AUTO 09005KT 8000 BKN210/// 04/03 Q1005 BLU
  • 211625Z AUTO 10004KT 9000 BKN220/// 04/03 Q1005 BLU

TAF TAF EBFS
Valid from the 21 at 19:00 until the 22 at 07:00 UTC


211541Z 2119/2207 17010KT 7000 FEW100 SCT150 BKN250
TEMPO 2119/2207 15008KT 4000 BR FEW025 SCT100 BKN150
PROB40
TEMPO 2119/2207 2500 BR FEW004 SCT025 BKN150
PROB30
TEMPO 2201/2207 1200 BR SCT004 SCT020 BKN150



MET'MAP, your aeronautical weather chart ! - Copyright ORBIFLY December 2007 - Disclaimer

ORBIFLY MET'MAP TEAM :

Programming & Development : Alexandra Zaïnal
Concept & Development : Baudouin d'Aumeries
Co-Development & Prog : Marc-Olivier Méhu
Technical & hardware support : Manuel Goepfert

Contact : metmap@orbifly.com




SOURCES & CREDITS :

   NOAA